KSTP/STP METAR and TAF weather

Enter ICAO airport designator
Station Type Date Time Source
KSTP METAR 2020/10/29 16:53 UTC NOAA

KSTP 291653Z 34008KT 10SM OVC027 01/M06 A3018 RMK AO2 SLP226 T00111056


Station Type Date Time Source
KSTP Decoded METAR 2020/10/29 16:53 UTC NOAA

DOWNTOWN HOLMAN FIELD, MN, United States (KSTP) 44-56N 093-03W 219M
Oct 29, 2020 - 12:53 PM EDT / 2020.10.29 1653 UTC
Wind: from the NNW (340 degrees) at 9 MPH (8 KT):0
Visibility: 10 mile(s):0
Sky conditions: overcast
Temperature: 34.0 F (1.1 C)
Windchill: 26 F (-3 C):1
Dew Point: 21.9 F (-5.6 C)
Relative Humidity: 60%
Pressure (altimeter): 30.18 in. Hg (1022 hPa)
ob: KSTP 291653Z 34008KT 10SM OVC027 01/M06 A3018 RMK AO2 SLP226 T00111056
cycle: 17

Station Type Date Time Source
KSTP TAF 2018/02/05 20:57 UTC NOAA

TAF
AMD KSTP 051957Z 0520/0618 25007KT P6SM VCSH BKN020 OVC050
TEMPO 0520/0522 SCT020
FM052200 26006KT P6SM FEW020 BKN110
FM060100 31006KT P6SM FEW100
AMD NOT SKED

Example: see airport list